createdAt,value
2016-07-11T13:24:33.691Z,1005.59
2016-07-11T13:25:33.634Z,1005.62
2016-07-11T13:26:33.628Z,1005.61
2016-07-11T13:27:33.619Z,1005.53
2016-07-11T13:28:33.610Z,1005.55
2016-07-11T13:29:33.607Z,1005.55
2016-07-11T13:30:33.602Z,1005.58
2016-07-11T13:31:33.596Z,1005.6
2016-07-11T13:32:33.592Z,1005.68
2016-07-11T13:33:33.588Z,1005.68
2016-07-11T13:34:33.587Z,1005.69
2016-07-11T13:35:33.576Z,1005.69
2016-07-11T13:36:33.593Z,1005.67
2016-07-11T13:37:33.569Z,1005.65
2016-07-11T13:38:33.564Z,1005.66
2016-07-11T13:39:33.565Z,1005.64
2016-07-11T13:40:33.561Z,1005.62
2016-07-11T13:41:33.562Z,1005.67
2016-07-11T13:42:33.565Z,1005.62
2016-07-11T13:43:33.552Z,1005.69
2016-07-11T13:44:33.553Z,1005.69
2016-07-11T13:45:33.547Z,1005.69
2016-07-11T13:46:33.747Z,1005.64
2016-07-11T13:47:33.551Z,1005.63
2016-07-11T13:48:33.545Z,1005.66
2016-07-11T13:49:33.546Z,1005.7
2016-07-11T13:50:33.540Z,1005.62
2016-07-11T13:51:33.540Z,1005.62
2016-07-11T13:52:33.541Z,1005.69
2016-07-11T13:53:33.539Z,1005.78
2016-07-11T13:54:33.539Z,1005.73
2016-07-11T13:55:33.536Z,1005.75
2016-07-11T13:56:33.534Z,1005.73
2016-07-11T13:57:33.533Z,1005.72
2016-07-11T13:58:33.535Z,1005.72
2016-07-11T13:59:33.531Z,1005.72
2016-07-11T14:00:33.534Z,1005.65
2016-07-11T14:01:33.532Z,1005.62
2016-07-11T14:02:33.531Z,1005.73
2016-07-11T14:03:33.533Z,1005.76
2016-07-11T14:04:33.533Z,1005.82
2016-07-11T14:05:33.533Z,1005.73
2016-07-11T14:06:33.542Z,1005.79
2016-07-11T14:07:33.528Z,1005.76
2016-07-11T14:08:33.530Z,1005.75
2016-07-11T14:09:33.535Z,1005.71
2016-07-11T14:10:33.532Z,1005.72
2016-07-11T14:11:33.533Z,1005.67
2016-07-11T14:12:33.531Z,1005.7
2016-07-11T14:13:33.530Z,1005.76
2016-07-11T14:14:33.533Z,1005.61
2016-07-11T14:15:33.539Z,1005.52
2016-07-11T14:16:33.535Z,1005.51
2016-07-11T14:17:33.535Z,1005.51
2016-07-11T14:18:33.538Z,1005.45
2016-07-11T14:19:33.534Z,1005.51
2016-07-11T14:20:33.535Z,1005.4
2016-07-11T14:21:33.536Z,1005.39
2016-07-11T14:22:33.737Z,1005.42
2016-07-11T14:23:33.631Z,1005.44
2016-07-11T14:24:33.741Z,1005.47
2016-07-11T14:25:33.538Z,1005.36
2016-07-11T14:26:33.659Z,1005.41
2016-07-11T14:27:33.640Z,1005.41
2016-07-11T14:28:33.592Z,1005.38
2016-07-11T14:29:33.746Z,1005.38
2016-07-11T14:30:33.770Z,1005.37
2016-07-11T14:31:33.661Z,1005.44
2016-07-11T14:32:33.713Z,1005.45
2016-07-11T14:33:33.679Z,1005.46
2016-07-11T14:34:33.690Z,1005.5
2016-07-11T14:35:33.678Z,1005.5
2016-07-11T14:36:33.546Z,1005.51
2016-07-11T14:37:33.548Z,1005.53
2016-07-11T14:38:33.549Z,1005.58
2016-07-11T14:39:33.552Z,1005.58
2016-07-11T14:40:33.552Z,1005.59
2016-07-11T14:41:33.555Z,1005.63
2016-07-11T14:42:33.555Z,1005.53
2016-07-11T14:43:33.557Z,1005.5
2016-07-11T14:44:33.564Z,1005.54
2016-07-11T14:45:33.555Z,1005.58
2016-07-11T14:46:33.560Z,1005.51
2016-07-11T14:47:33.701Z,1005.53
2016-07-11T14:48:33.683Z,1005.54
2016-07-11T14:49:33.676Z,1005.54
2016-07-11T14:50:33.666Z,1005.68
2016-07-11T14:51:33.715Z,1005.6
2016-07-11T14:52:33.688Z,1005.71
2016-07-11T14:53:33.763Z,1005.57
2016-07-11T14:54:33.574Z,1005.63
2016-07-11T14:55:33.572Z,1005.55
2016-07-11T14:56:33.573Z,1005.58
2016-07-11T14:57:33.575Z,1005.61
2016-07-11T14:58:33.780Z,1005.62
2016-07-11T14:59:33.576Z,1005.65
2016-07-11T15:00:33.582Z,1005.6
2016-07-11T15:01:33.784Z,1005.58
2016-07-11T15:02:33.583Z,1005.66
2016-07-11T15:03:33.785Z,1005.55
2016-07-11T15:04:33.589Z,1005.61
2016-07-11T15:05:33.586Z,1005.56
2016-07-11T15:06:33.587Z,1005.52
2016-07-11T15:07:33.591Z,1005.52
2016-07-11T15:08:33.592Z,1005.53
2016-07-11T15:09:33.594Z,1005.52
2016-07-11T15:10:33.594Z,1005.64
2016-07-11T15:11:33.594Z,1005.62
2016-07-11T15:12:33.600Z,1005.56
2016-07-11T15:13:33.601Z,1005.61
2016-07-11T15:14:33.604Z,1005.56
2016-07-11T15:15:33.603Z,1005.55
2016-07-11T15:16:33.605Z,1005.6
2016-07-11T15:17:33.605Z,1005.59
2016-07-11T15:18:33.609Z,1005.7
2016-07-11T15:19:33.609Z,1005.63
2016-07-11T15:20:33.608Z,1005.57
2016-07-11T15:21:33.614Z,1005.44
2016-07-11T15:22:33.616Z,1005.44
2016-07-11T15:23:33.613Z,1005.54
2016-07-11T15:24:33.615Z,1005.52
2016-07-11T15:25:33.619Z,1005.49
2016-07-11T15:26:33.621Z,1005.51
2016-07-11T15:27:33.623Z,1005.45
2016-07-11T15:28:33.622Z,1005.44
2016-07-11T15:29:33.624Z,1005.51
2016-07-11T15:30:33.639Z,1005.47
2016-07-11T15:31:33.629Z,1005.41
2016-07-11T15:32:33.635Z,1005.47
2016-07-11T15:33:33.729Z,1005.5
2016-07-11T15:34:33.822Z,1005.56
2016-07-11T15:35:33.713Z,1005.51
2016-07-11T15:36:33.949Z,1005.54
2016-07-11T15:37:33.636Z,1005.47
2016-07-11T15:38:33.633Z,1005.48
2016-07-11T15:39:33.804Z,1005.39
2016-07-11T15:40:33.794Z,1005.42
2016-07-11T15:41:33.682Z,1005.43
2016-07-11T15:42:33.639Z,1005.45
2016-07-11T15:43:33.642Z,1005.46
2016-07-11T15:44:33.642Z,1005.42
2016-07-11T15:45:33.655Z,1005.53
2016-07-11T15:46:33.763Z,1005.47
2016-07-11T15:47:33.815Z,1005.51
2016-07-11T15:48:33.784Z,1005.53
2016-07-11T15:49:33.650Z,1005.53
2016-07-11T15:50:33.834Z,1005.52
2016-07-11T15:51:33.771Z,1005.54
2016-07-11T15:52:33.759Z,1005.52
2016-07-11T15:53:33.657Z,1005.5
2016-07-11T15:54:33.659Z,1005.47
2016-07-11T15:55:33.658Z,1005.57
2016-07-11T15:56:33.661Z,1005.65
2016-07-11T15:57:33.661Z,1005.54
2016-07-11T15:58:33.663Z,1005.47
2016-07-11T15:59:33.869Z,1005.59
2016-07-11T16:00:33.667Z,1005.52
2016-07-11T16:01:33.671Z,1005.52
2016-07-11T16:02:33.667Z,1005.51
2016-07-11T16:03:33.672Z,1005.52
2016-07-11T16:04:33.675Z,1005.5
2016-07-11T16:05:33.874Z,1005.5
2016-07-11T16:06:33.674Z,1005.46
2016-07-11T16:07:33.676Z,1005.47
2016-07-11T16:08:33.676Z,1005.47
2016-07-11T16:09:33.682Z,1005.47
2016-07-11T16:10:33.686Z,1005.47
2016-07-11T16:11:33.686Z,1005.44
2016-07-11T16:12:33.684Z,1005.47
2016-07-11T16:13:33.690Z,1005.48
2016-07-11T16:14:33.691Z,1005.47
2016-07-11T16:15:33.690Z,1005.44
2016-07-11T16:16:33.692Z,1005.44
2016-07-11T16:17:33.697Z,1005.42
2016-07-11T16:18:33.697Z,1005.44
2016-07-11T16:19:33.694Z,1005.44
2016-07-11T16:20:33.700Z,1005.44
2016-07-11T16:21:33.703Z,1005.37
2016-07-11T16:22:33.707Z,1005.35
2016-07-11T16:23:33.705Z,1005.37
2016-07-11T16:24:33.708Z,1005.35
2016-07-11T16:25:33.708Z,1005.38
2016-07-11T16:26:33.708Z,1005.33
2016-07-11T16:27:33.711Z,1005.36
2016-07-11T16:28:33.858Z,1005.33
2016-07-11T16:29:33.818Z,1005.31
2016-07-11T16:30:33.876Z,1005.31
2016-07-11T16:31:33.842Z,1005.32
2016-07-11T16:32:33.858Z,1005.33
2016-07-11T16:33:33.730Z,1005.32
2016-07-11T16:34:33.722Z,1005.31
2016-07-11T16:35:33.863Z,1005.32
2016-07-11T16:36:33.766Z,1005.31
2016-07-11T16:37:33.861Z,1005.3
2016-07-11T16:38:33.776Z,1005.3
2016-07-11T16:39:33.866Z,1005.37
2016-07-11T16:40:33.824Z,1005.35
2016-07-11T16:41:33.900Z,1005.32
2016-07-11T16:42:33.870Z,1005.3
2016-07-11T16:43:33.839Z,1005.35
2016-07-11T16:44:33.738Z,1005.38
2016-07-11T16:45:33.739Z,1005.37
2016-07-11T16:46:33.741Z,1005.38
2016-07-11T16:47:33.745Z,1005.34
2016-07-11T16:48:33.740Z,1005.34
2016-07-11T16:49:33.745Z,1005.33
2016-07-11T16:50:33.746Z,1005.32
2016-07-11T16:51:33.747Z,1005.35
2016-07-11T16:52:33.751Z,1005.26
2016-07-11T16:53:33.756Z,1005.32
2016-07-11T16:54:33.751Z,1005.28
2016-07-11T16:55:33.755Z,1005.33
2016-07-11T16:56:33.754Z,1005.32
2016-07-11T16:57:33.757Z,1005.33
2016-07-11T16:58:33.759Z,1005.37
2016-07-11T16:59:33.760Z,1005.38
2016-07-11T17:00:33.762Z,1005.4
2016-07-11T17:01:33.965Z,1005.35
2016-07-11T17:02:33.966Z,1005.27
2016-07-11T17:03:33.769Z,1005.31
2016-07-11T17:04:33.769Z,1005.27
2016-07-11T17:05:33.765Z,1005.28
2016-07-11T17:06:33.772Z,1005.28
2016-07-11T17:07:33.773Z,1005.25
2016-07-11T17:08:33.774Z,1005.3
2016-07-11T17:09:33.776Z,1005.26
2016-07-11T17:10:33.780Z,1005.25
2016-07-11T17:11:33.781Z,1005.27
2016-07-11T17:12:33.784Z,1005.29
2016-07-11T17:13:33.787Z,1005.33
2016-07-11T17:14:33.784Z,1005.26
2016-07-11T17:15:33.988Z,1005.31
2016-07-11T17:16:33.788Z,1005.3
2016-07-11T17:17:33.791Z,1005.27
2016-07-11T17:18:33.795Z,1005.26
2016-07-11T17:19:33.795Z,1005.27
2016-07-11T17:20:33.798Z,1005.28
2016-07-11T17:21:33.797Z,1005.31
2016-07-11T17:22:33.800Z,1005.23
2016-07-11T17:23:33.800Z,1005.23
2016-07-11T17:24:33.804Z,1005.26
2016-07-11T17:25:33.805Z,1005.27
2016-07-11T17:26:33.805Z,1005.21
2016-07-11T17:27:33.813Z,1005.29
2016-07-11T17:28:33.812Z,1005.23
2016-07-11T17:29:33.814Z,1005.27
2016-07-11T17:30:33.813Z,1005.22
2016-07-11T17:31:33.823Z,1005.23
2016-07-11T17:32:33.820Z,1005.24
2016-07-11T17:33:33.823Z,1005.29
2016-07-11T17:34:33.825Z,1005.25
2016-07-11T17:35:33.827Z,1005.24
2016-07-11T17:36:34.030Z,1005.23
2016-07-11T17:37:33.827Z,1005.23
2016-07-11T17:38:33.834Z,1005.27
2016-07-11T17:39:33.836Z,1005.32
2016-07-11T17:40:33.835Z,1005.33
2016-07-11T17:41:34.353Z,1005.27
2016-07-11T17:42:33.992Z,1005.28
2016-07-11T17:43:34.034Z,1005.31
2016-07-11T17:44:33.863Z,1005.28
2016-07-11T17:45:34.072Z,1005.3
2016-07-11T17:46:33.995Z,1005.28
2016-07-11T17:47:33.882Z,1005.29
2016-07-11T17:48:33.853Z,1005.31
2016-07-11T17:49:33.865Z,1005.24
2016-07-11T17:50:33.871Z,1005.26
2016-07-11T17:51:34.090Z,1005.33
2016-07-11T17:52:33.859Z,1005.26
2016-07-11T17:53:33.865Z,1005.31
2016-07-11T17:54:33.863Z,1005.32
2016-07-11T17:55:33.869Z,1005.29
2016-07-11T17:56:33.871Z,1005.28
2016-07-11T17:57:33.883Z,1005.29
2016-07-11T17:58:33.874Z,1005.29
2016-07-11T17:59:33.885Z,1005.31
2016-07-11T18:00:33.882Z,1005.36
2016-07-11T18:01:33.887Z,1005.35
2016-07-11T18:02:33.885Z,1005.35
2016-07-11T18:03:33.884Z,1005.4
2016-07-11T18:04:33.889Z,1005.42
2016-07-11T18:05:33.890Z,1005.37
2016-07-11T18:06:33.895Z,1005.38
2016-07-11T18:07:33.895Z,1005.37
2016-07-11T18:08:33.897Z,1005.33
2016-07-11T18:09:33.900Z,1005.31
2016-07-11T18:10:33.904Z,1005.32
2016-07-11T18:11:33.909Z,1005.36
2016-07-11T18:12:33.909Z,1005.36
2016-07-11T18:13:33.913Z,1005.39
2016-07-11T18:14:33.914Z,1005.37
2016-07-11T18:15:33.914Z,1005.33
2016-07-11T18:16:33.918Z,1005.4
2016-07-11T18:17:33.923Z,1005.41
2016-07-11T18:18:33.923Z,1005.42
2016-07-11T18:19:33.925Z,1005.39
2016-07-11T18:20:33.931Z,1005.32
2016-07-11T18:21:33.935Z,1005.34
2016-07-11T18:22:33.946Z,1005.35
2016-07-11T18:23:33.940Z,1005.4
2016-07-11T18:24:33.940Z,1005.37
2016-07-11T18:25:33.946Z,1005.41
2016-07-11T18:26:33.945Z,1005.44
2016-07-11T18:27:33.949Z,1005.41
2016-07-11T18:28:33.952Z,1005.41
2016-07-11T18:29:33.958Z,1005.44
2016-07-11T18:30:33.955Z,1005.43
2016-07-11T18:31:33.960Z,1005.48
2016-07-11T18:32:33.964Z,1005.47
2016-07-11T18:33:33.968Z,1005.48
2016-07-11T18:34:33.970Z,1005.44
2016-07-11T18:35:33.978Z,1005.4
2016-07-11T18:36:33.977Z,1005.47
2016-07-11T18:37:33.978Z,1005.49
2016-07-11T18:38:33.980Z,1005.47
2016-07-11T18:39:33.984Z,1005.47
2016-07-11T18:40:33.987Z,1005.47
2016-07-11T18:41:33.988Z,1005.49
2016-07-11T18:42:33.991Z,1005.5
2016-07-11T18:43:33.993Z,1005.52
2016-07-11T18:44:33.999Z,1005.49
2016-07-11T18:45:34.001Z,1005.48
2016-07-11T18:46:34.000Z,1005.55
2016-07-11T18:47:34.003Z,1005.52
2016-07-11T18:48:34.006Z,1005.52
2016-07-11T18:49:34.009Z,1005.5
2016-07-11T18:50:34.012Z,1005.51
2016-07-11T18:51:34.033Z,1005.48
2016-07-11T18:52:34.016Z,1005.49
2016-07-11T18:53:34.020Z,1005.49
2016-07-11T18:54:34.018Z,1005.5
2016-07-11T18:55:34.020Z,1005.5
2016-07-11T18:56:34.026Z,1005.5
2016-07-11T18:57:34.026Z,1005.5
2016-07-11T18:58:34.028Z,1005.53
2016-07-11T18:59:34.034Z,1005.54
2016-07-11T19:00:34.030Z,1005.57
2016-07-11T19:01:34.033Z,1005.53
2016-07-11T19:02:34.035Z,1005.57
2016-07-11T19:03:34.040Z,1005.56
2016-07-11T19:04:34.039Z,1005.55
2016-07-11T19:05:34.044Z,1005.54
